Joffre, Pennsylvania
Current Conditions -  °F | °C
As of 3:51 AM on Saturday 20 Dec 2014 (Local Time) from KPIT Reporting Station
Overcast Overcast  
Wind Chill: -6°   Ceiling: 2500
Heat Index: -3°   Visibility: 10mi
Dew Point: -7°   Wind: 6mph
Humidity: 75%   Direction: 20°NNE
Pressure: 30.23"   Gusts: NA
Location:  40.38°N, 80.36°W
Report Text: KPIT 200851Z 02005KT 10SM OVC025 M03/M07 A3023 RMK AO2 SLP261 T10281067 58000
Loading
Personal Weather Stations






























Interactive Weather Map New forecast layout! Learn more

10-Day Weather Forecast

Advertisements
Track Severe Weather on mobile